Aviation Digital Data Service (ADDS)

Output produced by METARs form (0020 UTC 26 January 2015)
found at http://aviationweather.gov/adds/metars/
 
KDAG 252350Z AUTO 19003KT 10SM CLR 22/M03 A3009 RMK AO2 SLP179 T02171033 10228 20139 56016
KDAG 252320Z 2600/2624 VRB05KT P6SM OVC250 
     FM261000 28005KT P6SM SCT150 OVC200 
     FM261800 12007KT P6SM VCSH SCT060 SCT100 OVC150
       
KEDW 252358Z 08002KT 90SM BKN250 20/01 A3008 RMK AO2A SLP183 T01970013 10217 20075 56013
KVCV 252355Z AUTO 06007KT 10SM SCT110 19/M03 A3012 RMK AO2
KONT 252353Z 07009G15KT 10SM FEW020 FEW150 BKN180 BKN250 26/M03 A2999 RMK AO2 SLP139 FU FEW020 FU SW AND DSNT NW T02561033 10272 20239 55000
KONT 252334Z 2600/2706 VRB06KT P6SM BKN150 
     FM261700 VRB06KT P6SM VCSH BKN050 
     FM262300 VRB06KT P6SM -SHRA BKN040 OVC080
       
KSNA 252353Z 20010KT 10SM SCT180 BKN250 24/01 A2995 RMK AO2 SLP142 T02440011 10300 20239 55001 $
KSNA 252334Z 2600/2624 20008KT P6SM BKN150 
     FM260100 VRB04KT P6SM BKN150 
     FM261600 20008KT P6SM VCSH BKN070 BKN100 
     FM262000 VRB06KT P6SM VCSH BKN050 OVC080
       
KSAN 252351Z 34005KT 10SM BKN160 BKN250 23/M03 A2998 RMK AO2 SLP150 T02331028 10250 20194 53004
KSAN 252334Z 2600/2706 VRB04KT P6SM BKN150 
     FM261600 15009KT P6SM VCSH BKN060 OVC100 
     FM262000 VRB06KT P6SM -SHRA BKN040 OVC100
       
KNID 252356Z 10007KT 10SM CLR 23/M02 A3009 RMK AO2 SLP184 T02331017 10239 20178 56014 $
KNXP 252356Z 01005KT 10SM BKN200 21/M02 A3016 RMK AO2 SLP189 T02061017 10222 20183 55007 $
TAF KNXP 2521/2621 01008KT 9999 SCT200 520109 521009 521901 542005 525009 523407 QNH2996INS 
     BECMG 2603/2605 VRB05KT 9999 SCT090 BKN200 520108 540905 521406 542005 525009 523407 QNH2997INS 
     TEMPO 2616/2621 8000 -SHRA BR BKN050 AUTOMATED SENSOR METWATCH 2521 TIL 2615 T23/2522Z T08/2612Z
       
KPSP 252353Z 32006KT 10SM BKN200 27/M04 A3002 RMK AO2 SLP165 T02721039 10278 20256 56011
KPSP 252334Z 2600/2624 VRB06KT P6SM BKN200 
     FM261400 VRB06KT P6SM VCSH SCT060 OVC100 
     FM261800 VRB06KT P6SM -SHRA BKN040 OVC070
       
KLAX 252353Z 28005KT 10SM BKN150 22/04 A2996 RMK AO2 SLP144 T02170044 10267 20211 55006
KLAX 252348Z 2600/2706 32005KT P6SM OVC150 
     FM260300 VRB03KT P6SM OVC150 
     FM261500 05005KT P6SM OVC120 
     FM261900 12006KT P6SM VCSH BKN080 OVC120 
     FM262300 21008KT P6SM -RA BKN040 OVC080
       
KCNO 252353Z 06003KT 10SM BKN100 24/01 A2998 RMK AO2 SLP148 T02440006 10278 20233 55001 $
KSMO 252351Z 00000KT 10SM CLR 24/02 A2996 RMK AO2 SLP143 T02440017 10283 20228 55006
KLGB 252353Z 00000KT 10SM CLR 27/03 A2994 RMK AO2 SLP138 T02720028 10272 20222 56008
KLGB 252348Z 2600/2624 VRB04KT P6SM OVC150 
     FM261200 VRB03KT P6SM OVC120 
     FM261900 12006KT P6SM VCSH BKN080 OVC120 
     FM262300 21008KT P6SM -RA BKN040 OVC080
       
KVNY 252351Z 18005KT 10SM CLR 23/01 A2998 RMK AO2 SLP145 T02330006 10267 20222 55001
KVNY 252348Z 2600/2624 18009KT P6SM OVC150 
     FM261200 VRB03KT P6SM OVC120 
     FM261900 13007KT P6SM VCSH BKN070 OVC120 
     FM262300 13007KT P6SM -RA BKN040 OVC080
       
KBUR 252353Z 20003KT 10SM CLR 24/M02 A2998 RMK AO2 SLP141 T02441022 10261 20211 55004
KBUR 252348Z 2600/2624 VRB04KT P6SM OVC150 
     FM261200 VRB03KT P6SM OVC120 
     FM261900 13007KT P6SM VCSH BKN070 OVC120 
     FM262300 13007KT P6SM -RA BKN040 OVC080
       
KBFL 252354Z 00000KT 5SM HZ CLR 13/07 A3006 RMK AO2 SLP177 T01280067 10128 20050 56011
KBFL 252333Z 2600/2624 VRB05KT 5SM HZ SKC 
     FM260900 VRB02KT 3SM BR SCT120 
     FM262000 20010KT 5SM HZ BKN120
       
KPMD 252353Z AUTO 09012KT 10SM CLR 19/00 A3009 RMK AO2 SLP185 T01940000 10217 20117 56014
KPMD 252355Z 2600/2624 10015KT P6SM OVC150 
     FM260300 VRB05KT P6SM OVC150 
     FM261900 VRB03KT P6SM VCSH BKN070 OVC120 
     FM262300 09007KT P6SM -SHRA BKN050 OVC100
       
KOXR 252351Z 32003KT 10SM CLR 23/05 A2995 RMK AO2 SLP141 T02330050 10294 20217 55003
KOXR 252358Z 2600/2624 VRB04KT P6SM OVC180 
     FM260700 08006KT P6SM OVC180 
     FM261400 06010KT P6SM SCT120 OVC180 
     FM261700 07012KT P6SM BKN050 OVC120
       
KWJF 252356Z 04008KT 10SM CLR 19/01 A3009 RMK AO2 SLP192 T01940006 10211 20117 56016
KWJF 252357Z 2600/2624 05012KT P6SM OVC150 
     FM260400 VRB05KT P6SM OVC150 
     FM261900 VRB05KT P6SM VCSH BKN070 OVC120 
     FM262300 04010KT P6SM -SHRA BKN050 OVC100
       
KCMA 252355Z 05010KT 10SM CLR 26/03 A2995 RMK AO2 SLP149 T02610028 10289 20261 55008
KFAT 252353Z 33004KT 6SM HZ CLR 12/06 A3006 RMK AO2 SLP179 T01220061 10128 20044 56021
KFAT 252333Z 2600/2624 VRB03KT 5SM HZ SKC 
     FM260600 VRB03KT 3SM BR SKC 
     FM260900 VRB02KT 1SM BR OVC004 
     FM261900 VRB03KT 3SM BR OVC006 
     FM262200 VRB04KT 4SM HZ OVC009
       
KEED 252356Z AUTO 02013G21KT 10SM CLR 24/M02 A3003 RMK AO2 SLP148 T02391017 10256 20217 56012 $
KEED 252320Z 2600/2624 01015G25KT P6SM OVC250 
     FM260200 33010KT P6SM OVC250 
     FM261000 31008KT P6SM SCT150 OVC200 
     FM261800 12007KT P6SM VCSH SCT060 SCT100 OVC150
       
KLSV 252358Z AUTO 04008KT 10SM CLR 22/02 A3013 RMK AO2 SLP192 T02240017 10231 20150 56014 $
TAF KLSV 2517/2623 02009KT 9999 SKC QNH3018INS 
     BECMG 2619/2620 VRB06KT 9999 FEW220 QNH3017INS TX22/2523Z TN07/2615Z
       
KLAS 252356Z 29003KT 10SM FEW250 23/M01 A3011 RMK AO2 SLP188 T02281006 10228 20167 56016
KLAS 252333Z 2600/2624 VRB05KT P6SM SKC 
     FM260300 21007KT P6SM FEW250 
     FM260800 21007KT P6SM BKN250 
     FM261700 VRB05KT P6SM SCT150 OVC200 
     FM262000 15006KT P6SM FEW100 BKN150 OVC200
       
KHII 252355Z AUTO 29012KT 10SM CLR 24/00 A3001 RMK AO2
KIFP 260015Z AUTO 35021G32KT 10SM CLR 23/00 A3003 RMK AO2 PWINO